createdAt,value
2019-03-30T00:00:02.797Z,74.17
2019-03-30T00:02:31.535Z,61.73
2019-03-30T00:05:00.286Z,79.20
2019-03-30T00:07:29.033Z,80.23
2019-03-30T00:09:57.805Z,71.93
2019-03-30T00:12:26.546Z,66.07
2019-03-30T00:14:55.308Z,76.63
2019-03-30T00:17:24.056Z,75.57
2019-03-30T00:19:52.923Z,63.83
2019-03-30T00:22:21.747Z,62.57
2019-03-30T00:24:50.512Z,53.87
2019-03-30T00:27:19.302Z,51.83
2019-03-30T00:29:48.037Z,56.07
2019-03-30T00:32:16.929Z,72.87
2019-03-30T00:34:45.647Z,74.73
2019-03-30T00:37:14.380Z,80.77
2019-03-30T00:39:43.150Z,74.33
2019-03-30T00:42:11.925Z,75.28
2019-03-30T00:44:40.887Z,78.43
2019-03-30T00:47:09.634Z,88.17
2019-03-30T00:49:48.478Z,93.40
2019-03-30T00:52:08.929Z,109.50
2019-03-30T00:54:37.677Z,104.50
2019-03-30T00:57:06.431Z,87.83
2019-03-30T00:59:35.200Z,99.57
2019-03-30T01:02:03.989Z,114.25
2019-03-30T01:04:32.722Z,100.53
2019-03-30T01:07:01.474Z,83.43
2019-03-30T01:09:30.225Z,77.10
2019-03-30T01:11:58.981Z,78.07
2019-03-30T01:14:27.748Z,83.50
2019-03-30T01:16:56.675Z,82.03
2019-03-30T01:19:25.424Z,92.63
2019-03-30T01:21:56.239Z,82.80
2019-03-30T01:24:24.707Z,73.37
2019-03-30T01:26:53.514Z,74.13
2019-03-30T01:29:22.293Z,87.60
2019-03-30T01:31:51.050Z,90.77
2019-03-30T01:34:19.857Z,89.97
2019-03-30T01:36:48.596Z,78.70
2019-03-30T01:39:17.344Z,81.67
2019-03-30T01:41:46.100Z,91.27
2019-03-30T01:44:14.859Z,86.22
2019-03-30T01:46:43.622Z,100.67
2019-03-30T01:49:12.609Z,119.60
2019-03-30T01:51:41.355Z,118.77
2019-03-30T01:54:10.115Z,119.63
2019-03-30T01:56:38.887Z,111.40
2019-03-30T01:59:07.710Z,107.73
2019-03-30T02:01:36.578Z,109.07
2019-03-30T02:04:05.316Z,104.77
2019-03-30T02:06:34.054Z,112.63
2019-03-30T02:09:02.830Z,108.80
2019-03-30T02:11:31.589Z,103.47
2019-03-30T02:14:00.365Z,111.57
2019-03-30T02:16:29.107Z,132.70
2019-03-30T02:18:57.863Z,115.03
2019-03-30T02:21:26.610Z,93.57
2019-03-30T02:23:55.377Z,82.02
2019-03-30T02:26:24.105Z,71.10
2019-03-30T02:28:52.873Z,60.93
2019-03-30T02:31:21.676Z,62.73
2019-03-30T02:33:50.407Z,71.17
2019-03-30T02:36:19.194Z,82.57
2019-03-30T02:38:48.011Z,83.60
2019-03-30T02:41:16.776Z,64.60
2019-03-30T02:43:45.517Z,71.87
2019-03-30T02:46:14.315Z,72.27
2019-03-30T02:48:43.052Z,72.23
2019-03-30T02:51:11.840Z,68.22
2019-03-30T02:53:40.614Z,78.43
2019-03-30T02:56:09.360Z,86.70
2019-03-30T02:58:38.085Z,85.83
2019-03-30T03:01:06.852Z,67.70
2019-03-30T03:03:35.714Z,85.93
2019-03-30T03:06:04.462Z,81.67
2019-03-30T03:08:33.313Z,73.73
2019-03-30T03:11:02.104Z,83.83
2019-03-30T03:13:30.884Z,78.63
2019-03-30T03:15:59.650Z,80.00
2019-03-30T03:18:28.422Z,79.27
2019-03-30T03:21:07.483Z,87.02
2019-03-30T03:23:27.693Z,63.20
2019-03-30T03:25:56.449Z,64.67
2019-03-30T03:28:25.209Z,63.80
2019-03-30T03:30:53.992Z,83.73
2019-03-30T03:33:22.794Z,66.63
2019-03-30T03:35:51.522Z,82.03
2019-03-30T03:38:20.280Z,82.70
2019-03-30T03:40:49.008Z,67.87
2019-03-30T03:43:17.768Z,70.67
2019-03-30T03:45:46.498Z,71.10
2019-03-30T03:48:15.273Z,67.40
2019-03-30T03:50:45.780Z,55.70
2019-03-30T03:53:17.123Z,55.65
2019-03-30T03:55:46.171Z,56.50
2019-03-30T03:58:17.200Z,52.27
2019-03-30T04:00:47.727Z,54.20
2019-03-30T04:03:18.025Z,46.60
2019-03-30T04:05:49.814Z,51.70
2019-03-30T04:08:18.582Z,55.07
2019-03-30T04:10:48.804Z,51.73
2019-03-30T04:13:17.542Z,59.90
2019-03-30T04:15:46.407Z,56.60
2019-03-30T04:18:15.152Z,52.73
2019-03-30T04:20:43.983Z,55.93
2019-03-30T04:23:13.002Z,56.65
2019-03-30T04:25:41.738Z,72.83
2019-03-30T04:28:10.636Z,76.35
2019-03-30T04:30:39.360Z,64.13
2019-03-30T04:33:08.089Z,65.70
2019-03-30T04:35:36.849Z,67.37
2019-03-30T04:38:05.609Z,72.50
2019-03-30T04:40:34.348Z,68.23
2019-03-30T04:43:03.100Z,66.27
2019-03-30T04:45:31.827Z,82.13
2019-03-30T04:48:00.697Z,64.77
2019-03-30T04:50:29.428Z,61.73
2019-03-30T04:52:58.153Z,60.58
2019-03-30T04:55:26.926Z,57.60
2019-03-30T04:57:57.821Z,46.83
2019-03-30T05:00:26.214Z,64.67
2019-03-30T05:02:57.160Z,66.02
2019-03-30T05:05:26.083Z,68.20
2019-03-30T05:07:54.948Z,54.20
2019-03-30T05:10:23.683Z,63.53
2019-03-30T05:12:52.825Z,59.70
2019-03-30T05:15:21.591Z,74.67
2019-03-30T05:17:50.384Z,65.33
2019-03-30T05:20:19.131Z,66.37
2019-03-30T05:22:51.103Z,52.63
2019-03-30T05:25:18.346Z,43.13
2019-03-30T05:27:47.086Z,49.00
2019-03-30T05:30:15.960Z,46.13
2019-03-30T05:32:44.703Z,61.10
2019-03-30T05:35:13.482Z,54.83
2019-03-30T05:37:42.217Z,59.80
2019-03-30T05:40:19.060Z,56.95
2019-03-30T05:42:48.122Z,50.10
2019-03-30T05:45:16.876Z,40.90
2019-03-30T05:47:45.617Z,38.93
2019-03-30T05:50:15.856Z,34.27
2019-03-30T05:52:44.620Z,41.40
2019-03-30T05:55:13.492Z,25.68
2019-03-30T05:57:44.621Z,29.50
2019-03-30T06:00:15.933Z,28.98
2019-03-30T06:02:45.587Z,28.20
2019-03-30T06:05:14.349Z,31.48
2019-03-30T06:07:43.113Z,24.10
2019-03-30T06:10:11.985Z,33.93
2019-03-30T06:12:40.732Z,30.87
2019-03-30T06:15:09.650Z,32.03
2019-03-30T06:17:38.427Z,35.00
2019-03-30T06:20:09.853Z,30.60
2019-03-30T06:22:40.408Z,34.00
2019-03-30T06:25:10.831Z,34.77
2019-03-30T06:27:39.679Z,34.80
2019-03-30T06:30:28.361Z,35.33
2019-03-30T06:32:57.167Z,31.93
2019-03-30T06:35:26.080Z,28.63
2019-03-30T06:37:54.929Z,33.67
2019-03-30T06:40:23.675Z,28.60
2019-03-30T06:42:52.334Z,30.90
2019-03-30T06:45:21.121Z,29.65
2019-03-30T06:47:49.919Z,32.50
2019-03-30T06:50:18.714Z,26.40
2019-03-30T06:52:57.540Z,25.30
2019-03-30T06:55:18.026Z,30.40
2019-03-30T06:57:46.772Z,25.03
2019-03-30T07:00:17.290Z,27.63
2019-03-30T07:02:46.866Z,29.57
2019-03-30T07:05:15.700Z,23.60
2019-03-30T07:07:45.937Z,24.93
2019-03-30T07:10:15.989Z,29.67
2019-03-30T07:12:47.696Z,23.93
2019-03-30T07:15:16.449Z,27.17
2019-03-30T07:17:48.884Z,27.60
2019-03-30T07:20:29.194Z,25.17
2019-03-30T07:23:11.250Z,27.63
2019-03-30T07:25:29.356Z,27.33
2019-03-30T07:27:58.090Z,22.90
2019-03-30T07:30:26.863Z,25.12
2019-03-30T07:32:55.603Z,20.83
2019-03-30T07:35:24.472Z,23.03
2019-03-30T07:37:55.150Z,24.17
2019-03-30T07:40:26.674Z,27.43
2019-03-30T07:42:55.445Z,24.73
2019-03-30T07:45:24.193Z,25.40
2019-03-30T07:47:53.315Z,23.20
2019-03-30T07:50:22.051Z,25.50
2019-03-30T07:52:50.809Z,21.87
2019-03-30T07:55:20.587Z,23.30
2019-03-30T07:57:49.847Z,26.83
2019-03-30T08:00:20.075Z,22.67
2019-03-30T08:02:48.845Z,22.75
2019-03-30T08:05:17.612Z,18.07
2019-03-30T08:07:46.347Z,21.40
2019-03-30T08:10:17.531Z,20.40
2019-03-30T08:12:49.182Z,22.30
2019-03-30T08:15:22.646Z,24.57
2019-03-30T08:17:57.871Z,20.93
2019-03-30T08:20:35.645Z,21.30
2019-03-30T08:23:05.857Z,23.20
2019-03-30T08:25:34.739Z,18.97
2019-03-30T08:28:03.558Z,24.10
2019-03-30T08:30:32.340Z,19.83
2019-03-30T08:33:02.509Z,21.50
2019-03-30T08:35:31.309Z,23.60
2019-03-30T08:38:00.119Z,20.93
2019-03-30T08:40:45.302Z,20.70
2019-03-30T08:43:14.398Z,18.10
2019-03-30T08:45:43.187Z,20.20
2019-03-30T08:48:13.200Z,19.53
2019-03-30T08:50:41.986Z,16.07
2019-03-30T08:53:10.903Z,18.87
2019-03-30T08:55:39.661Z,16.47
2019-03-30T08:58:08.631Z,21.47
2019-03-30T09:00:42.481Z,18.90
2019-03-30T09:03:11.369Z,21.53
2019-03-30T09:05:40.271Z,18.63
2019-03-30T09:08:09.071Z,18.13
2019-03-30T09:10:37.844Z,18.13
2019-03-30T09:13:06.691Z,18.27
2019-03-30T09:15:35.527Z,22.33
2019-03-30T09:18:04.463Z,24.83
2019-03-30T09:20:33.327Z,17.13
2019-03-30T09:23:02.228Z,14.37
2019-03-30T09:25:31.340Z,19.10
2019-03-30T09:28:00.242Z,19.00
2019-03-30T09:30:29.012Z,21.10
2019-03-30T09:32:57.929Z,19.60
2019-03-30T09:35:26.849Z,16.83
2019-03-30T09:37:55.630Z,14.00
2019-03-30T09:40:24.371Z,17.80
2019-03-30T09:42:53.144Z,13.53
2019-03-30T09:45:21.935Z,17.23
2019-03-30T09:47:50.698Z,15.60
2019-03-30T09:50:19.469Z,17.52
2019-03-30T09:52:48.365Z,17.23
2019-03-30T09:55:17.105Z,21.20
2019-03-30T09:57:45.845Z,16.60
2019-03-30T10:00:14.717Z,15.87
2019-03-30T10:02:43.890Z,17.57
2019-03-30T10:05:12.786Z,17.63
2019-03-30T10:07:41.545Z,18.60
2019-03-30T10:10:12.910Z,16.73
2019-03-30T10:12:41.763Z,18.00
2019-03-30T10:15:11.884Z,17.60
2019-03-30T10:17:40.733Z,18.63
2019-03-30T10:20:11.213Z,17.97
2019-03-30T10:22:42.129Z,19.63
2019-03-30T10:25:10.893Z,18.60
2019-03-30T10:27:40.707Z,17.30
2019-03-30T10:30:11.935Z,18.03
2019-03-30T10:32:40.969Z,16.40
2019-03-30T10:35:09.749Z,16.60
2019-03-30T10:37:38.502Z,21.53
2019-03-30T10:40:10.171Z,20.60
2019-03-30T10:42:38.937Z,20.83
2019-03-30T10:45:09.136Z,16.42
2019-03-30T10:47:37.896Z,17.03
2019-03-30T10:50:10.016Z,17.60
2019-03-30T10:52:38.784Z,17.30
2019-03-30T10:55:07.517Z,21.90
2019-03-30T10:57:36.471Z,19.50
2019-03-30T11:00:09.122Z,18.13
2019-03-30T11:02:39.784Z,17.57
2019-03-30T11:05:09.998Z,17.23
2019-03-30T11:07:38.852Z,19.17
2019-03-30T11:10:08.167Z,22.63
2019-03-30T11:12:36.935Z,19.87
2019-03-30T11:15:07.288Z,20.50
2019-03-30T11:17:37.163Z,20.73
2019-03-30T11:20:06.632Z,17.82
2019-03-30T11:22:35.606Z,20.10
2019-03-30T11:25:07.629Z,22.23
2019-03-30T11:27:36.110Z,22.20
2019-03-30T11:30:07.174Z,19.98
2019-03-30T11:32:38.516Z,15.80
2019-03-30T11:35:08.739Z,17.60
2019-03-30T11:37:37.567Z,18.53
2019-03-30T11:40:08.142Z,21.47
2019-03-30T11:42:37.050Z,18.90
2019-03-30T11:45:07.506Z,19.80
2019-03-30T11:47:37.242Z,20.20
2019-03-30T11:50:08.542Z,19.52
2019-03-30T11:52:39.256Z,24.27
2019-03-30T11:55:21.069Z,21.73
2019-03-30T11:57:39.344Z,19.83
2019-03-30T12:00:09.776Z,19.70
2019-03-30T12:02:38.544Z,24.57
2019-03-30T12:05:08.690Z,19.15
2019-03-30T12:07:39.275Z,23.07
2019-03-30T12:10:09.105Z,22.00
2019-03-30T12:12:37.859Z,17.60
2019-03-30T12:15:10.217Z,21.17
2019-03-30T12:17:41.234Z,22.67
2019-03-30T12:20:11.376Z,24.43
2019-03-30T12:22:40.519Z,23.93
2019-03-30T12:25:09.400Z,21.70
2019-03-30T12:27:38.210Z,23.20
2019-03-30T12:30:08.608Z,21.47
2019-03-30T12:32:37.435Z,27.07
2019-03-30T12:35:07.777Z,19.77
2019-03-30T12:37:36.736Z,16.70
2019-03-30T12:40:07.580Z,22.27
2019-03-30T12:42:36.437Z,21.23
2019-03-30T12:45:07.638Z,20.77
2019-03-30T12:47:36.406Z,24.27
2019-03-30T12:50:07.039Z,22.40
2019-03-30T12:52:35.789Z,22.40
2019-03-30T12:55:05.355Z,19.00
2019-03-30T12:57:34.244Z,16.93
2019-03-30T13:00:03.639Z,24.10
2019-03-30T13:02:32.545Z,17.40
2019-03-30T13:05:01.464Z,17.20
2019-03-30T13:07:30.255Z,26.50
2019-03-30T13:09:59.061Z,17.25
2019-03-30T13:12:27.802Z,21.47
2019-03-30T13:14:56.598Z,15.53
2019-03-30T13:17:25.419Z,17.83
2019-03-30T13:19:54.490Z,18.53
2019-03-30T13:22:23.236Z,18.70
2019-03-30T13:24:52.067Z,18.33
2019-03-30T13:27:20.832Z,18.30
2019-03-30T13:29:49.575Z,16.50
2019-03-30T13:32:18.347Z,21.10
2019-03-30T13:34:47.231Z,14.20
2019-03-30T13:37:21.287Z,15.93
2019-03-30T13:39:50.066Z,13.47
2019-03-30T13:42:18.846Z,15.67
2019-03-30T13:44:47.673Z,15.10
2019-03-30T13:47:16.444Z,15.80
2019-03-30T13:49:45.250Z,17.57
2019-03-30T13:52:14.056Z,19.77
2019-03-30T13:54:43.000Z,17.43
2019-03-30T13:57:11.741Z,18.15
2019-03-30T13:59:40.501Z,19.27
2019-03-30T14:02:09.280Z,18.40
2019-03-30T14:04:38.028Z,21.07
2019-03-30T14:07:06.848Z,13.83
2019-03-30T14:09:35.608Z,20.40
2019-03-30T14:12:05.388Z,21.97
2019-03-30T14:14:34.250Z,20.70
2019-03-30T14:17:03.031Z,24.73
2019-03-30T14:19:31.854Z,22.33
2019-03-30T14:22:00.624Z,20.50
2019-03-30T14:24:29.402Z,25.27
2019-03-30T14:26:58.221Z,16.83
2019-03-30T14:29:27.089Z,20.57
2019-03-30T14:31:55.898Z,20.63
2019-03-30T14:34:24.629Z,15.77
2019-03-30T14:36:53.404Z,17.83
2019-03-30T14:39:22.224Z,17.50
2019-03-30T14:41:51.184Z,12.50
2019-03-30T14:44:19.930Z,11.70
2019-03-30T14:46:48.845Z,16.60
2019-03-30T14:49:17.660Z,17.47
2019-03-30T14:51:46.417Z,17.20
2019-03-30T14:54:15.223Z,15.50
2019-03-30T14:56:45.850Z,14.83
2019-03-30T14:59:14.852Z,11.45
2019-03-30T15:01:43.594Z,14.83
2019-03-30T15:04:12.622Z,15.53
2019-03-30T15:06:41.412Z,15.63
2019-03-30T15:09:10.234Z,16.15
2019-03-30T15:11:39.033Z,12.27
2019-03-30T15:14:07.783Z,13.50
2019-03-30T15:16:36.519Z,13.80
2019-03-30T15:19:05.474Z,12.63
2019-03-30T15:21:34.320Z,10.40
2019-03-30T15:24:03.126Z,13.27
2019-03-30T15:26:31.892Z,11.27
2019-03-30T15:29:00.661Z,11.20
2019-03-30T15:31:29.453Z,14.30
2019-03-30T15:33:58.193Z,14.67
2019-03-30T15:36:26.936Z,22.60
2019-03-30T15:38:55.698Z,28.13
2019-03-30T15:41:24.500Z,22.50
2019-03-30T15:43:53.282Z,21.67
2019-03-30T15:46:22.026Z,21.90
2019-03-30T15:48:50.924Z,24.30
2019-03-30T15:51:19.675Z,24.90
2019-03-30T15:53:48.414Z,22.67
2019-03-30T15:56:17.227Z,29.75
2019-03-30T15:58:45.966Z,30.23
2019-03-30T16:01:14.766Z,24.12
2019-03-30T16:03:43.544Z,26.73
2019-03-30T16:06:12.320Z,27.90
2019-03-30T16:08:41.192Z,23.18
2019-03-30T16:11:09.973Z,23.93
2019-03-30T16:13:39.317Z,22.93
2019-03-30T16:16:08.185Z,23.20
2019-03-30T16:18:36.929Z,30.97
2019-03-30T16:21:05.668Z,32.10
2019-03-30T16:23:34.442Z,26.10
2019-03-30T16:26:03.300Z,28.10
2019-03-30T16:28:32.087Z,25.47
2019-03-30T16:31:00.824Z,23.13
2019-03-30T16:33:29.986Z,27.20
2019-03-30T16:36:02.417Z,29.17
2019-03-30T16:38:29.451Z,27.20
2019-03-30T16:40:58.303Z,24.37
2019-03-30T16:43:27.132Z,28.50
2019-03-30T16:45:55.903Z,28.77
2019-03-30T16:48:24.689Z,33.00
2019-03-30T16:50:53.514Z,34.77
2019-03-30T16:53:22.347Z,36.47
2019-03-30T16:55:51.146Z,41.77
2019-03-30T16:58:20.028Z,44.70
2019-03-30T17:00:56.416Z,48.63
2019-03-30T17:03:23.085Z,38.13
2019-03-30T17:05:52.978Z,46.10
2019-03-30T17:08:26.670Z,40.67
2019-03-30T17:10:56.090Z,44.10
2019-03-30T17:13:24.917Z,44.80
2019-03-30T17:15:53.734Z,50.10
2019-03-30T17:18:22.490Z,46.37
2019-03-30T17:20:51.274Z,47.43
2019-03-30T17:23:20.355Z,45.05
2019-03-30T17:25:50.003Z,51.37
2019-03-30T17:28:18.777Z,52.80
2019-03-30T17:30:47.531Z,56.07
2019-03-30T17:33:16.278Z,52.67
2019-03-30T17:35:45.038Z,56.20
2019-03-30T17:38:13.981Z,56.35
2019-03-30T17:40:42.760Z,72.80
2019-03-30T17:43:11.619Z,70.67
2019-03-30T17:45:40.383Z,70.50
2019-03-30T17:48:09.200Z,68.37
2019-03-30T17:50:38.029Z,70.65
2019-03-30T17:53:06.861Z,72.20
2019-03-30T17:55:35.907Z,69.03
2019-03-30T17:58:12.831Z,72.12
2019-03-30T18:00:35.944Z,81.65
2019-03-30T18:03:05.442Z,78.40
2019-03-30T18:05:34.207Z,81.93
2019-03-30T18:08:03.069Z,86.97
2019-03-30T18:10:31.986Z,85.57
2019-03-30T18:13:00.787Z,87.25
2019-03-30T18:15:29.589Z,78.23
2019-03-30T18:17:58.443Z,85.70
2019-03-30T18:20:27.232Z,85.27
2019-03-30T18:22:56.003Z,90.90
2019-03-30T18:25:24.754Z,98.13
2019-03-30T18:27:53.590Z,85.23
2019-03-30T18:30:31.033Z,94.27
2019-03-30T18:33:00.079Z,96.20
2019-03-30T18:35:30.590Z,92.47
2019-03-30T18:38:01.566Z,97.88
2019-03-30T18:40:36.002Z,88.17
2019-03-30T18:43:05.347Z,95.70
2019-03-30T18:45:34.195Z,96.30
2019-03-30T18:48:19.014Z,99.72
2019-03-30T18:50:48.877Z,88.17
2019-03-30T18:53:18.328Z,93.63
2019-03-30T18:55:47.071Z,98.17
2019-03-30T18:58:15.972Z,99.60
2019-03-30T19:00:44.802Z,94.90
2019-03-30T19:03:13.484Z,94.05
2019-03-30T19:05:42.366Z,94.87
2019-03-30T19:08:11.024Z,78.52
2019-03-30T19:10:39.756Z,91.33
2019-03-30T19:13:08.526Z,98.90
2019-03-30T19:15:37.290Z,93.80
2019-03-30T19:18:06.063Z,97.10
2019-03-30T19:20:34.838Z,94.25
2019-03-30T19:23:03.713Z,91.27
2019-03-30T19:25:32.470Z,99.77
2019-03-30T19:28:14.503Z,90.17
2019-03-30T19:30:52.297Z,93.70
2019-03-30T19:33:21.407Z,91.80
2019-03-30T19:35:50.307Z,92.00
2019-03-30T19:38:19.161Z,92.03
2019-03-30T19:40:58.721Z,81.77
2019-03-30T19:43:38.752Z,96.70
2019-03-30T19:46:14.957Z,89.80
2019-03-30T19:48:52.429Z,82.40
2019-03-30T19:51:28.608Z,81.03
2019-03-30T19:54:09.544Z,85.93
2019-03-30T19:56:39.045Z,77.63
2019-03-30T19:59:11.137Z,77.67
2019-03-30T20:01:38.911Z,84.43
2019-03-30T20:04:08.049Z,78.07
2019-03-30T20:06:37.086Z,79.70
2019-03-30T20:09:09.615Z,89.50
2019-03-30T20:11:38.587Z,82.77
2019-03-30T20:14:08.049Z,76.67
2019-03-30T20:16:36.872Z,85.07
2019-03-30T20:19:12.793Z,93.23
2019-03-30T20:21:36.788Z,78.43
2019-03-30T20:24:05.659Z,79.80
2019-03-30T20:26:34.938Z,86.20
2019-03-30T20:29:05.217Z,86.07
2019-03-30T20:31:34.335Z,79.23
2019-03-30T20:34:03.408Z,86.47
2019-03-30T20:36:35.090Z,71.03
2019-03-30T20:39:03.839Z,79.90
2019-03-30T20:41:33.275Z,75.90
2019-03-30T20:44:02.346Z,78.20
2019-03-30T20:46:31.306Z,85.70
2019-03-30T20:49:00.261Z,84.00
2019-03-30T20:51:29.058Z,79.27
2019-03-30T20:53:58.221Z,78.50
2019-03-30T20:56:27.066Z,79.70
2019-03-30T20:58:56.075Z,91.73
2019-03-30T21:01:24.883Z,95.73
2019-03-30T21:03:54.047Z,84.10
2019-03-30T21:06:22.809Z,89.80
2019-03-30T21:08:51.741Z,81.55
2019-03-30T21:11:21.120Z,73.03
2019-03-30T21:13:50.123Z,82.47
2019-03-30T21:16:19.168Z,80.95
2019-03-30T21:18:48.250Z,82.00
2019-03-30T21:21:17.376Z,83.87
2019-03-30T21:23:46.386Z,83.47
2019-03-30T21:26:15.244Z,86.53
2019-03-30T21:28:44.042Z,68.97
2019-03-30T21:31:12.780Z,67.87
2019-03-30T21:33:41.505Z,91.17
2019-03-30T21:36:10.348Z,87.40
2019-03-30T21:38:39.107Z,82.80
2019-03-30T21:41:08.440Z,76.53
2019-03-30T21:43:37.283Z,92.27
2019-03-30T21:46:06.085Z,83.37
2019-03-30T21:48:35.053Z,79.00
2019-03-30T21:51:03.908Z,95.53
2019-03-30T21:53:33.112Z,88.47
2019-03-30T21:56:02.472Z,65.50
2019-03-30T21:58:31.239Z,75.53
2019-03-30T22:01:02.922Z,99.70
2019-03-30T22:03:32.796Z,95.92
2019-03-30T22:06:01.531Z,79.13
2019-03-30T22:08:30.274Z,90.07
2019-03-30T22:10:59.040Z,99.57
2019-03-30T22:13:27.774Z,89.40
2019-03-30T22:15:56.540Z,69.57
2019-03-30T22:18:25.281Z,67.10
2019-03-30T22:20:54.050Z,89.73
2019-03-30T22:23:22.884Z,96.50
2019-03-30T22:25:51.880Z,91.70
2019-03-30T22:28:20.819Z,86.93
2019-03-30T22:30:49.899Z,97.13
2019-03-30T22:33:18.704Z,100.42
2019-03-30T22:35:47.487Z,90.33
2019-03-30T22:38:16.343Z,102.02
2019-03-30T22:40:45.175Z,98.30
2019-03-30T22:43:13.910Z,88.70
2019-03-30T22:45:42.684Z,83.47
2019-03-30T22:48:11.491Z,78.90
2019-03-30T22:50:40.390Z,100.65
2019-03-30T22:53:09.174Z,95.33
2019-03-30T22:55:38.022Z,103.90
2019-03-30T22:58:06.868Z,99.17
2019-03-30T23:00:43.046Z,94.93
2019-03-30T23:03:12.143Z,104.13
2019-03-30T23:05:40.883Z,107.10
2019-03-30T23:08:09.668Z,94.65
2019-03-30T23:10:38.548Z,102.00
2019-03-30T23:13:07.344Z,112.27
2019-03-30T23:15:36.165Z,100.47
2019-03-30T23:18:05.059Z,98.17
2019-03-30T23:20:34.241Z,97.33
2019-03-30T23:23:02.974Z,96.20
2019-03-30T23:25:31.756Z,99.80
2019-03-30T23:28:00.549Z,95.07
2019-03-30T23:30:29.310Z,99.35
2019-03-30T23:32:58.090Z,94.90
2019-03-30T23:35:26.889Z,98.23
2019-03-30T23:37:55.739Z,103.20
2019-03-30T23:40:24.573Z,95.40
2019-03-30T23:42:53.302Z,84.73
2019-03-30T23:45:22.251Z,86.50
2019-03-30T23:47:50.997Z,104.72
2019-03-30T23:50:19.765Z,93.43
2019-03-30T23:52:48.562Z,100.47
2019-03-30T23:55:17.316Z,103.63
2019-03-30T23:57:46.251Z,81.77
